Terminal Aerodrome Forecast
Issued by NWS

Home | Current Version | Previous Version | Text Only | Print | Product List | Glossary On
Versions: 1 2 3 4 5 6 7 8 9 10 11 12 13 14
000
FTUS45 KGJT 201740
TAFTEX
TAF
KTEX 201740Z 2018/2118 27006KT P6SM BKN090
     FM202100 26008G18KT P6SM VCTS BKN090CB
     FM210300 VRB04KT P6SM BKN080=

USA.gov is the U.S. government's official web portal to all federal, state and local government web resources and services.